<< Go Back

Run Manchester
Date: Aug. 3, 2013
Results by Everal Race Management
Contact for Race Timing

Other distances in this race:
 
Run Manchester

5k Run

Age Group Results

August 03, 2013

--------------------------------------------------------------------------------
Results Provided by Everal Race Management
--------------------------------------------------------------------------------

Male Overall Winners
Total
Place Name City Bib No Age Overall Time Pace
1 Dan Dixon Jackson MI 365 49 1 16:34 5:21/M


Female Overall Winners
Total
Place Name City Bib No Age Overall Time Pace
1 Stephanie Johnson Manchester MI 247 31 4 22:19 7:12/M


Male Masters Winners
Total
Place Name City Bib No Age Overall Time Pace
1 George Lathrop Ottawa Hills OH 279 45 3 21:28 6:55/M


Female Masters Winners
Total
Place Name City Bib No Age Overall Time Pace
1 Sue Mann Manchester MI 335 48 11 24:51 8:01/M


Male 12 & under
Total
Place Name City Bib No Age Overall Time Pace
1 Calvin Daniels Manchester MI 740 12 10 24:42 7:58/M
2 Devon Kelly Manchester MI 980 12 27 28:18 9:08/M
3 Aiden Kelly Manchester MI 983 9 58 32:04 10:21/M
4 Timothy Willoughby Temperance MI 355 5 68 35:04 11:19/M
5 Ryan Kelly Manchester MI 981 7 77 36:34 11:48/M


Female 12 & under
Total
Place Name City Bib No Age Overall Time Pace
1 Megan Jacobs Manchester MI 360 12 17 25:52 8:21/M
2 Mary Smith Natchitoches LA 1906 11 46 29:50 9:37/M
3 Grace Pilaczynski Tecumseh MI 775 9 70 35:28 11:26/M
4 Cora Pilaczynski Tecumseh MI 1893 7 72 35:30 11:27/M


Male 13 to 14
Total
Place Name City Bib No Age Overall Time Pace
1 Joseph Grebe Manchester MI 1920 13 75 36:32 11:47/M


Female 13 to 14
Total
Place Name City Bib No Age Overall Time Pace
1 Allison Hilpert Houston TX 246 14 9 24:11 7:48/M
2 Sasha Brown Manchester MI 393 13 15 25:40 8:17/M
3 Riley Collins Manchester MI 367 14 29 28:43 9:16/M
4 Delanie Osborne Manchester MI 617 14 30 28:45 9:16/M
5 Loretta Westcott Manchester MI 390 14 31 28:45 9:16/M
6 Madison Andreone Manchester MI 391 14 37 29:31 9:31/M
7 Abigail Vlcek Manchester MI 380 14 41 29:32 9:32/M
8 Emma Harris Manchester MI 377 14 56 31:44 10:14/M
9 Meghan Dula Jackson MI 240 13 74 36:01 11:37/M


Male 15 to 16
Total
Place Name City Bib No Age Overall Time Pace
1 Max Cocco Manchester MI 378 16 55 31:43 10:14/M


Female 15 to 16
Total
Place Name City Bib No Age Overall Time Pace
1 Rachel Stiles Manchester MI 494 15 39 29:31 9:31/M
2 Danielle Kurasz Manchester MI 396 15 40 29:31 9:31/M


Male 17 to 18
Total
Place Name City Bib No Age Overall Time Pace
1 Evan Krzyzaniak Manchester MI 357 17 2 19:16 6:13/M


Female 17 to 18
Total
Place Name City Bib No Age Overall Time Pace
1 Grace Beckman Greenville MI 214 18 35 29:17 9:27/M
2 Kendra Beasley Manchester MI 381 17 54 31:43 10:14/M


Male 19 to 29
Total
Place Name City Bib No Age Overall Time Pace
1 Thomas Vacketta Ann Arbor MI 394 24 64 32:54 10:37/M


Female 19 to 29
Total
Place Name City Bib No Age Overall Time Pace
1 Sara Weidmayer Manchester MI 384 28 8 23:37 7:37/M
2 Austin Harper Manchester MI 245 22 16 25:51 8:20/M
3 Rebecca Scholten Manchester MI 347 28 23 27:22 8:50/M
4 Sarah Andrews Manchester MI 398 27 38 29:31 9:31/M
5 Kim Dieter Saline MI 238 24 45 29:49 9:37/M
6 Irene Koelewijn St Johns MI 250 27 57 31:44 10:14/M
7 Katie Haber Davis IL 1896 24 62 32:37 10:31/M
8 Ariana Beers Ann Arbor MI 395 24 63 32:54 10:37/M
9 Anneke Marshall Manchester MI 985 29 65 32:58 10:38/M
10 Grace Walters Manchester MI 375 20 81 37:58 12:15/M
11 Christy Dew Manchester MI 236 29 89 46:26 14:59/M


Male 30 to 39
Total
Place Name City Bib No Age Overall Time Pace
1 Andy Corwin Manchester MI 1898 38 18 25:55 8:22/M
2 Brad Philip Tecumseh MI 340 35 19 26:27 8:32/M
3 Scott Schafer St Johns MI 346 31 42 29:32 9:32/M
4 David Downing Manchester MI 239 38 44 29:44 9:35/M


Female 30 to 39
Total
Place Name City Bib No Age Overall Time Pace
1 Jessica Stretch Tecumseh MI 400 31 6 23:31 7:35/M
2 Elissa Weidmayer Ann Arbor MI 699 32 67 34:19 11:04/M
3 Nicole Willoughby Temperance MI 354 32 69 35:04 11:19/M
4 Gimmie Sue Pilaczynski Tecumseh MI 965 37 71 35:30 11:27/M
5 Juliana Kelly Manchester MI 982 33 76 36:33 11:47/M
6 Megan Haight Ypsilanti MI 242 32 78 36:59 11:56/M
7 Meghan Schulte Bradenton FL 348 33 79 37:17 12:02/M
8 Katherine Clark Manchester MI 358 38 84 40:32 13:05/M
9 Heather Jones Manchester MI 248 33 86 43:11 13:56/M
10 Audrey McHugh Grass Lake, Mi MI 1895 30 92 49:39 16:01/M
11 Kristi Moody Adrian MI 339 35 98 1:04:13 20:43/M


Male 40 to 49
Total
Place Name City Bib No Age Overall Time Pace
1 Brian Pieszchala Ann Arbor MI 342 45 7 23:32 7:35/M
2 Tom Mann Manchester MI 336 42 12 24:51 8:01/M
3 Thomas Adams Manchester MI 212 46 32 28:57 9:20/M
4 Peter Haines Gowen MI 243 47 34 29:13 9:25/M
5 Luke Mast Brooklyn MI 337 46 47 30:23 9:48/M
6 Lawrence Kniffin Saline MI 362 46 95 58:28 18:52/M


Female 40 to 49
Total
Place Name City Bib No Age Overall Time Pace
1 Andrea Ranger Manchester MI 345 49 20 26:37 8:35/M
2 Anne Adams Manchester MI 211 46 33 28:58 9:21/M
3 Ronnie Haines Gowen MI 244 45 36 29:17 9:27/M
4 Joyce Daniels Manchester MI 729 48 48 30:28 9:50/M
5 Julie Vogel Manchester MI 352 42 50 30:50 9:57/M
6 Laurel Spencer Ann Arbor MI 349 40 51 30:51 9:57/M
7 Trisa Beasley Manchester MI 382 46 53 31:30 10:10/M
8 Monica Ruthenbery Manchester MI 368 43 60 32:19 10:25/M
9 Bobby Huddleston Manchester MI 364 42 61 32:32 10:30/M
10 Dena Gilmore Manchester MI 379 48 66 33:28 10:48/M
11 Kris Tolly Munith MI 350 49 82 38:27 12:24/M
12 Azizah Vlielander Ann Arbor MI 351 49 87 44:12 14:15/M
13 Lisa Philip Tecumseh MI 341 42 88 44:15 14:16/M
14 Ruth Ammon Chelsea MI 213 47 90 49:08 15:51/M


Male 50 to 59
Total
Place Name City Bib No Age Overall Time Pace
1 Karl Brown Tecumseh MI 493 54 5 22:26 7:14/M
2 Tony Day Grass Lake MI 235 51 21 26:50 8:39/M
3 Hal Walters Manchester MI 373 56 22 26:55 8:41/M
4 Gerald Miller Jr Manchester MI 338 53 28 28:25 9:10/M
5 Bruce Purdy Manchester MI 343 56 97 59:20 19:08/M


Female 50 to 59
Total
Place Name City Bib No Age Overall Time Pace
1 Colleen Kemner Manchester MI 249 50 13 25:23 8:11/M
2 Linda Blystone Adrain MI 376 50 24 27:32 8:53/M
3 Lynn Gonyer Manchester MI 241 54 43 29:36 9:33/M
4 Nona Iott Manchester MI 383 51 52 31:07 10:02/M
5 Joann Crescio Grass Lake MI 233 55 59 32:07 10:22/M
6 Katherine Walters Manchester MI 374 53 80 37:58 12:15/M
7 Julie Crispin Manchester MI 234 58 83 38:50 12:32/M
8 Liz Purdy Manchester MI 344 53 96 59:20 19:08/M
9 Diane England Chelsea MI 369 53 99 1:04:13 20:43/M


Male 60 & up
Total
Place Name City Bib No Age Overall Time Pace
1 Rick Stevens Ann Arbor MI 370 67 14 25:38 8:16/M
2 Ron Frick Hastings MI 363 67 26 28:15 9:07/M
3 Roger Kappler Manchester MI 388 66 49 30:45 9:55/M
4 Jim White Jackson MI 353 62 73 36:01 11:37/M
5 Gerald Boettger Dexter MI 216 62 91 49:09 15:51/M
6 Leonard Lilja Ann Arbor MI 280 65 94 51:45 16:42/M


Female 60 & up
Total
Place Name City Bib No Age Overall Time Pace
1 Lia Stevens Ann Arbor MI 371 67 25 27:53 9:00/M
2 Julie Dieter Saline MI 237 61 85 42:33 13:44/M
3 Virginia Lilja Ann Arbor MI 334 64 93 51:45 16:42/M